Time;durP1;ratioP1;P1;durP2;ratioP2;P2;SDS_P1;SDS_P2;PMS_P1;PMS_P2;Temp;Humidity;BMP_temperature;BMP_pressure;BME280_temperature;BME280_humidity;BME280_pressure;Samples;Min_cycle;Max_cycle;Signal;HPM_P1;HPM_P2
2022/06/06 00:01:57;;;;;;;9.90;8.48;;;16.10;99.90;;;;;;5046303;28;19917;-81
2022/06/06 00:04:23;;;;;;;9.48;8.35;;;16.10;99.90;;;;;;5043987;28;20073;-81
2022/06/06 00:06:51;;;;;;;10.38;8.25;;;16.10;99.90;;;;;;5044154;28;20049;-82
2022/06/06 00:09:18;;;;;;;12.98;9.65;;;16.10;99.90;;;;;;5045403;28;20124;-81
2022/06/06 00:11:44;;;;;;;10.40;9.30;;;16.10;99.90;;;;;;5045194;28;20032;-81
2022/06/06 00:14:11;;;;;;;12.82;9.57;;;16.10;99.90;;;;;;5044578;28;20140;-81
2022/06/06 00:16:37;;;;;;;10.25;8.55;;;16.10;99.90;;;;;;5045183;28;20462;-81
2022/06/06 00:19:04;;;;;;;14.07;10.13;;;16.10;99.90;;;;;;5045715;28;20135;-81
2022/06/06 00:21:30;;;;;;;11.13;9.32;;;16.10;99.90;;;;;;5043861;28;20079;-81
2022/06/06 00:23:59;;;;;;;11.32;9.88;;;16.10;99.90;;;;;;5044141;28;20040;-82
2022/06/06 00:26:26;;;;;;;11.40;10.10;;;16.10;99.90;;;;;;5042117;28;20043;-82
2022/06/06 00:28:52;;;;;;;10.82;9.73;;;16.10;99.90;;;;;;5045053;28;20047;-82
2022/06/06 00:36:46;;;;;;;10.85;8.90;;;16.00;99.90;;;;;;5043013;28;19924;-83
2022/06/06 00:39:13;;;;;;;12.95;9.52;;;16.00;99.90;;;;;;5044762;28;20045;-82
2022/06/06 00:41:46;;;;;;;16.65;10.23;;;16.00;99.90;;;;;;5049517;28;20037;-82
2022/06/06 00:44:17;;;;;;;14.88;10.15;;;16.00;99.90;;;;;;5044476;28;20040;-83
2022/06/06 00:47:05;;;;;;;11.15;9.02;;;16.10;99.90;;;;;;5044080;28;20112;-83
2022/06/06 00:49:42;;;;;;;12.45;9.75;;;16.00;99.90;;;;;;5034820;28;20473;-82
2022/06/06 00:52:23;;;;;;;11.48;9.77;;;16.00;99.90;;;;;;5044411;28;20067;-82
2022/06/06 00:54:52;;;;;;;13.48;9.75;;;16.00;99.90;;;;;;5043955;28;20403;-82
2022/06/06 00:57:23;;;;;;;11.95;9.90;;;16.10;99.90;;;;;;5044484;28;20094;-82
2022/06/06 00:59:49;;;;;;;14.85;11.13;;;16.00;99.90;;;;;;5043872;28;20037;-82
2022/06/06 01:02:16;;;;;;;13.85;10.10;;;16.00;99.90;;;;;;5043814;28;20403;-82
2022/06/06 01:04:42;;;;;;;11.38;9.73;;;16.00;99.90;;;;;;5043926;28;20128;-81
2022/06/06 01:07:10;;;;;;;14.07;9.88;;;16.00;99.90;;;;;;5027569;28;20037;-82
2022/06/06 01:09:36;;;;;;;11.82;9.60;;;15.90;99.90;;;;;;5028156;28;20495;-81
2022/06/06 01:12:07;;;;;;;11.65;9.15;;;15.90;99.90;;;;;;5044969;28;20041;-81
2022/06/06 01:14:37;;;;;;;12.45;8.80;;;15.90;99.90;;;;;;5059992;28;20067;-82
2022/06/06 01:17:30;;;;;;;11.75;9.18;;;15.80;99.90;;;;;;5042099;28;20048;-82
2022/06/06 01:20:10;;;;;;;14.50;8.98;;;15.70;99.90;;;;;;5043929;28;20044;-81
2022/06/06 01:22:38;;;;;;;12.60;9.20;;;15.70;99.90;;;;;;5046729;28;20449;-81
2022/06/06 01:25:42;;;;;;;11.93;9.07;;;15.70;99.90;;;;;;5030599;28;20029;-81
2022/06/06 01:28:45;;;;;;;11.38;9.20;;;15.60;99.90;;;;;;5064374;28;20107;-81
2022/06/06 01:31:33;;;;;;;15.65;9.35;;;15.50;99.90;;;;;;5049032;28;20083;-80
2022/06/06 01:34:02;;;;;;;13.88;9.68;;;15.50;99.90;;;;;;5048117;28;20045;-81
2022/06/06 01:36:30;;;;;;;14.85;9.73;;;15.40;99.90;;;;;;5047339;28;20029;-79
2022/06/06 01:38:59;;;;;;;15.52;9.45;;;15.40;99.90;;;;;;5048334;28;20529;-79
2022/06/06 01:41:29;;;;;;;12.93;9.35;;;15.30;99.90;;;;;;5048558;28;20128;-79
2022/06/06 01:44:02;;;;;;;13.55;9.43;;;15.20;99.90;;;;;;5047014;28;20136;-77
2022/06/06 01:46:33;;;;;;;13.63;9.25;;;15.20;99.90;;;;;;5046068;28;20033;-78
2022/06/06 01:48:59;;;;;;;15.65;8.70;;;15.10;99.90;;;;;;5046865;28;21576;-79
2022/06/06 01:51:31;;;;;;;13.95;9.23;;;15.10;99.90;;;;;;5047944;28;20444;-78
2022/06/06 01:53:57;;;;;;;12.13;8.80;;;15.10;99.90;;;;;;5047141;28;20082;-79
2022/06/06 01:56:27;;;;;;;15.13;8.30;;;15.00;99.90;;;;;;5048808;28;20040;-77
2022/06/06 01:58:53;;;;;;;11.45;8.00;;;15.10;99.90;;;;;;5046789;28;20069;-79
2022/06/06 02:01:19;;;;;;;10.68;7.63;;;15.10;99.90;;;;;;5048364;28;20082;-77
2022/06/06 02:03:45;;;;;;;9.48;6.65;;;15.00;99.90;;;;;;5046740;28;20512;-79
2022/06/06 02:06:11;;;;;;;10.23;6.90;;;15.00;99.90;;;;;;5032313;28;20123;-79
2022/06/06 02:08:37;;;;;;;8.77;6.63;;;15.00;99.90;;;;;;5046638;28;20502;-80
2022/06/06 02:11:03;;;;;;;9.20;6.40;;;14.90;99.90;;;;;;5047941;28;20059;-79
2022/06/06 02:13:28;;;;;;;7.45;6.00;;;14.90;99.90;;;;;;5048412;28;20041;-79
2022/06/06 02:15:54;;;;;;;11.07;6.47;;;14.90;99.90;;;;;;5046962;28;20044;-79
2022/06/06 02:18:22;;;;;;;8.55;5.30;;;14.90;99.90;;;;;;5047701;28;20124;-78
2022/06/06 02:20:48;;;;;;;6.75;5.03;;;14.90;99.90;;;;;;5045505;28;20045;-80
2022/06/06 02:23:14;;;;;;;8.77;4.70;;;14.80;99.90;;;;;;5031566;28;20035;-79
2022/06/06 02:25:40;;;;;;;6.32;4.40;;;14.70;99.90;;;;;;5046288;28;20045;-80
2022/06/06 02:28:06;;;;;;;5.15;4.35;;;14.70;99.90;;;;;;5031590;28;20085;-79
2022/06/06 02:30:35;;;;;;;7.68;4.38;;;14.70;99.90;;;;;;5047880;28;20406;-79
2022/06/06 02:33:01;;;;;;;7.78;4.35;;;14.60;99.90;;;;;;5050619;28;20037;-79
2022/06/06 02:35:31;;;;;;;7.38;4.53;;;14.60;99.90;;;;;;5047299;28;20041;-79
2022/06/06 02:37:57;;;;;;;8.80;5.03;;;14.60;99.90;;;;;;5047130;28;20037;-79
2022/06/06 02:40:25;;;;;;;7.07;5.07;;;14.50;99.90;;;;;;5047725;28;20059;-78
2022/06/06 02:42:50;;;;;;;7.53;5.47;;;14.60;99.90;;;;;;5048049;28;20503;-79
2022/06/06 02:45:17;;;;;;;7.25;5.45;;;14.60;99.90;;;;;;5048166;28;20039;-79
2022/06/06 02:47:48;;;;;;;8.02;5.28;;;14.60;99.90;;;;;;5046546;28;20126;-79
2022/06/06 02:50:16;;;;;;;9.02;6.03;;;14.60;99.90;;;;;;5046950;28;20041;-79
2022/06/06 02:52:43;;;;;;;8.95;5.55;;;14.60;99.90;;;;;;5046087;28;20044;-79
2022/06/06 02:55:10;;;;;;;11.90;5.65;;;14.50;99.90;;;;;;5047262;28;20040;-79
2022/06/06 02:57:42;;;;;;;10.15;5.60;;;14.50;99.90;;;;;;5047452;28;20028;-78
2022/06/06 03:00:10;;;;;;;9.48;5.72;;;14.50;99.90;;;;;;5048983;28;20403;-79
2022/06/06 03:02:36;;;;;;;9.32;6.20;;;14.50;99.90;;;;;;5047107;28;20112;-79
2022/06/06 03:05:03;;;;;;;9.07;6.50;;;14.50;99.90;;;;;;5047587;28;20033;-79
2022/06/06 03:07:43;;;;;;;10.52;6.90;;;14.50;99.90;;;;;;5046743;28;20040;-79
2022/06/06 03:10:44;;;;;;;9.93;6.90;;;14.50;99.90;;;;;;5046581;28;20123;-80
2022/06/06 03:13:17;;;;;;;9.50;6.80;;;14.50;99.90;;;;;;5002717;28;20481;-79
2022/06/06 03:22:33;;;;;;;8.85;6.68;;;14.50;99.90;;;;;;5046079;28;20147;-78
2022/06/06 03:25:18;;;;;;;8.07;6.28;;;14.50;99.90;;;;;;5043881;28;20036;-79
2022/06/06 03:28:00;;;;;;;8.02;6.43;;;14.60;99.90;;;;;;5029791;28;20041;-78
2022/06/06 03:30:45;;;;;;;9.80;6.13;;;14.50;99.90;;;;;;5047346;28;20119;-79
2022/06/06 03:33:11;;;;;;;7.10;5.80;;;14.60;99.90;;;;;;5046161;28;20563;-79
2022/06/06 03:35:59;;;;;;;7.07;5.20;;;14.50;99.90;;;;;;5046370;28;20037;-78
2022/06/06 03:38:43;;;;;;;9.68;5.75;;;14.50;99.90;;;;;;5044269;28;20387;-78
2022/06/06 03:41:18;;;;;;;;;;;14.40;99.90;;;;;;5045089;28;20040;-79
2022/06/06 03:43:51;;;;;;;;;;;14.40;99.90;;;;;;5045830;28;19924;-78
2022/06/06 03:46:17;;;;;;;7.07;5.17;;;14.40;99.90;;;;;;5044938;28;19923;-79
2022/06/06 03:48:58;;;;;;;6.68;4.70;;;14.40;99.90;;;;;;5042553;28;20041;-78
2022/06/06 03:52:04;;;;;;;6.78;4.95;;;14.40;99.90;;;;;;5046878;28;20041;-79
2022/06/06 03:54:44;;;;;;;5.60;5.00;;;14.40;99.90;;;;;;5045161;28;20064;-78
2022/06/06 03:57:19;;;;;;;6.18;4.97;;;14.40;99.90;;;;;;5045811;28;20583;-78
2022/06/06 03:59:49;;;;;;;6.45;5.00;;;14.40;99.90;;;;;;5029851;28;20048;-79
2022/06/06 04:02:19;;;;;;;6.75;5.20;;;14.40;99.90;;;;;;5045846;28;20049;-78
2022/06/06 04:04:45;;;;;;;6.65;5.05;;;14.40;99.90;;;;;;5046616;28;20036;-79
2022/06/06 04:07:11;;;;;;;6.40;4.82;;;14.40;99.90;;;;;;5029336;28;20048;-80
2022/06/06 04:09:37;;;;;;;6.40;4.65;;;14.40;99.90;;;;;;5045723;28;22294;-79
2022/06/06 04:12:21;;;;;;;7.13;4.43;;;14.40;99.90;;;;;;5045595;28;20032;-79
2022/06/06 04:15:18;;;;;;;7.25;4.93;;;14.40;99.90;;;;;;5045901;28;20036;-79
2022/06/06 04:18:10;;;;;;;6.80;4.03;;;14.40;99.90;;;;;;5046185;28;20047;-79
2022/06/06 04:20:38;;;;;;;4.47;4.07;;;14.40;99.90;;;;;;5043853;28;20041;-79
2022/06/06 04:23:27;;;;;;;5.00;4.13;;;14.40;99.90;;;;;;5044970;28;20545;-80
2022/06/06 04:26:23;;;;;;;5.68;4.00;;;14.40;99.90;;;;;;5042609;28;20170;-79
2022/06/06 04:29:30;;;;;;;6.30;3.30;;;14.40;99.90;;;;;;5044138;28;20521;-78
2022/06/06 04:32:01;;;;;;;4.97;3.33;;;14.40;99.90;;;;;;5014536;28;20052;-79
2022/06/06 04:34:29;;;;;;;3.45;2.90;;;14.40;99.90;;;;;;5043345;28;20135;-79
2022/06/06 04:37:05;;;;;;;7.13;2.90;;;14.50;99.90;;;;;;5043887;28;20041;-79
2022/06/06 04:39:58;;;;;;;3.08;2.78;;;14.50;99.90;;;;;;5027668;28;20120;-79
2022/06/06 04:42:44;;;;;;;2.50;2.30;;;14.50;99.90;;;;;;5028198;28;20040;-79
2022/06/06 04:45:34;;;;;;;4.38;2.20;;;14.60;99.90;;;;;;5042873;28;20577;-79
2022/06/06 04:48:03;;;;;;;3.72;2.95;;;14.50;99.90;;;;;;5044017;28;20040;-79
2022/06/06 04:50:29;;;;;;;3.80;2.83;;;14.50;99.90;;;;;;5044666;28;20051;-79
2022/06/06 04:53:06;;;;;;;6.78;2.90;;;14.50;99.90;;;;;;5044985;28;20029;-79
2022/06/06 04:55:33;;;;;;;3.63;3.13;;;14.50;99.90;;;;;;5027315;28;20041;-80
2022/06/06 04:58:02;;;;;;;5.63;3.35;;;14.50;99.90;;;;;;5044940;28;20032;-80
2022/06/06 05:00:31;;;;;;;4.20;3.30;;;14.50;99.90;;;;;;5045781;28;20037;-80
2022/06/06 05:02:57;;;;;;;7.15;3.33;;;14.50;99.90;;;;;;5043810;28;20152;-80
2022/06/06 05:05:28;;;;;;;6.47;3.70;;;14.50;99.90;;;;;;5027803;28;20504;-81
2022/06/06 05:08:03;;;;;;;6.30;3.88;;;14.50;99.90;;;;;;5032351;28;20054;-80
2022/06/06 05:10:56;;;;;;;6.22;3.55;;;14.50;99.90;;;;;;5043473;28;20052;-81
2022/06/06 05:13:48;;;;;;;4.72;3.90;;;14.40;99.90;;;;;;5047071;28;20098;-81
2022/06/06 05:16:35;;;;;;;7.30;4.75;;;14.40;99.90;;;;;;5036864;28;20037;-79
2022/06/06 05:19:29;;;;;;;5.65;4.47;;;14.30;99.90;;;;;;5049085;28;20049;-81
2022/06/06 05:22:15;;;;;;;6.57;4.53;;;14.30;99.90;;;;;;5024745;28;20048;-81
2022/06/06 05:24:49;;;;;;;9.60;5.18;;;14.30;99.90;;;;;;5047510;28;20041;-81
2022/06/06 05:27:40;;;;;;;6.47;5.50;;;14.20;99.90;;;;;;5046589;28;20167;-80
2022/06/06 05:30:13;;;;;;;7.35;5.63;;;14.30;99.90;;;;;;5050704;28;20455;-81
2022/06/06 05:32:54;;;;;;;12.07;5.95;;;14.20;99.90;;;;;;5048810;28;20037;-80
2022/06/06 05:35:28;;;;;;;10.80;6.15;;;14.20;99.90;;;;;;5044800;28;20072;-80
2022/06/06 05:38:25;;;;;;;9.52;6.00;;;14.20;99.90;;;;;;5048073;28;20041;-81
2022/06/06 05:41:06;;;;;;;13.45;6.38;;;14.10;99.90;;;;;;5019050;28;20049;-81
2022/06/06 05:43:49;;;;;;;12.02;6.50;;;14.10;99.90;;;;;;5047405;28;20041;-82
2022/06/06 05:46:36;;;;;;;9.90;5.60;;;14.10;99.90;;;;;;5029220;28;20108;-81
2022/06/06 05:49:23;;;;;;;9.57;5.68;;;14.10;99.90;;;;;;5043924;28;20445;-81
2022/06/06 05:52:27;;;;;;;9.32;6.13;;;14.00;99.90;;;;;;5047829;28;20041;-82
2022/06/06 05:55:05;;;;;;;10.23;6.10;;;14.00;99.90;;;;;;5028132;28;20091;-80
2022/06/06 05:57:42;;;;;;;10.57;6.32;;;14.10;99.90;;;;;;5045128;28;20106;-81
2022/06/06 06:00:16;;;;;;;11.98;5.85;;;14.10;99.90;;;;;;5045114;28;20037;-81
2022/06/06 06:02:54;;;;;;;9.77;5.85;;;14.10;99.90;;;;;;5048421;28;20035;-81
2022/06/06 06:05:44;;;;;;;9.88;5.53;;;14.10;99.90;;;;;;5049546;28;20033;-80
2022/06/06 06:08:55;;;;;;;10.70;5.45;;;14.10;99.90;;;;;;5041657;28;20045;-81
2022/06/06 06:11:43;;;;;;;7.97;5.80;;;14.10;99.90;;;;;;5048378;28;20442;-81
2022/06/06 06:14:59;;;;;;;9.85;6.47;;;14.00;99.90;;;;;;5046393;28;20036;-81
2022/06/06 06:17:28;;;;;;;9.60;6.65;;;14.00;99.90;;;;;;5025708;28;20461;-81
2022/06/06 06:20:18;;;;;;;12.77;7.18;;;14.00;99.90;;;;;;5043901;28;20041;-81
2022/06/06 06:22:47;;;;;;;13.02;6.70;;;14.00;99.90;;;;;;5035055;28;20514;-81
2022/06/06 06:25:15;;;;;;;9.98;5.95;;;13.90;99.90;;;;;;5049859;28;20039;-80
2022/06/06 06:27:43;;;;;;;11.32;6.45;;;14.00;99.90;;;;;;5048517;28;20037;-80
2022/06/06 06:30:09;;;;;;;8.90;5.63;;;14.00;99.90;;;;;;5048368;28;20049;-81
2022/06/06 06:32:57;;;;;;;7.78;5.53;;;14.00;99.90;;;;;;5049042;28;20060;-81
2022/06/06 06:35:35;;;;;;;8.88;5.53;;;14.10;99.90;;;;;;5046936;28;20083;-81
2022/06/06 06:38:17;;;;;;;7.40;5.18;;;14.10;99.90;;;;;;5048152;28;20131;-81
2022/06/06 06:40:56;;;;;;;7.97;4.90;;;14.10;99.90;;;;;;5047763;28;20037;-81
2022/06/06 06:43:50;;;;;;;7.20;5.05;;;14.20;99.90;;;;;;5047240;28;20059;-82
2022/06/06 06:46:46;;;;;;;6.70;4.28;;;14.20;99.90;;;;;;5051144;28;20041;-81
2022/06/06 06:49:47;;;;;;;6.85;4.28;;;14.20;99.90;;;;;;5047319;28;20051;-81
2022/06/06 06:52:25;;;;;;;7.22;4.32;;;14.30;99.90;;;;;;5046183;28;20045;-81
2022/06/06 06:55:15;;;;;;;5.40;3.65;;;14.30;99.90;;;;;;5047685;28;20044;-80
2022/06/06 06:58:02;;;;;;;8.27;3.97;;;14.40;99.90;;;;;;5047208;28;20044;-81
2022/06/06 07:00:37;;;;;;;6.47;3.83;;;14.40;99.90;;;;;;5049295;28;20037;-80
2022/06/06 07:09:46;;;;;;;6.00;3.95;;;14.70;99.90;;;;;;5045070;28;20041;-79
2022/06/06 07:12:43;;;;;;;8.77;4.00;;;14.60;99.90;;;;;;5048223;28;20116;-80
2022/06/06 07:15:11;;;;;;;6.13;3.90;;;14.60;99.90;;;;;;5040790;28;20033;-80
2022/06/06 07:17:43;;;;;;;6.00;3.78;;;14.60;99.90;;;;;;5047778;28;20082;-81
2022/06/06 07:20:12;;;;;;;7.20;3.72;;;14.50;99.90;;;;;;5048129;28;20043;-81
2022/06/06 07:25:25;;;;;;;11.60;3.90;;;14.60;99.90;;;;;;5043953;28;20123;-81
2022/06/06 07:27:51;;;;;;;7.47;4.05;;;14.70;99.90;;;;;;5046577;28;20513;-82
2022/06/06 07:30:18;;;;;;;10.00;4.47;;;14.70;99.90;;;;;;5051590;28;20033;-81
2022/06/06 07:33:00;;;;;;;8.80;4.03;;;14.70;99.90;;;;;;5033002;28;20029;-82
2022/06/06 07:35:51;;;;;;;5.88;3.90;;;14.80;99.90;;;;;;5051821;28;20041;-82
2022/06/06 07:38:40;;;;;;;7.50;4.07;;;14.90;99.90;;;;;;5051305;28;20063;-82
2022/06/06 07:41:41;;;;;;;6.20;3.58;;;15.00;99.90;;;;;;5030336;28;20445;-81
2022/06/06 07:44:15;;;;;;;8.85;4.22;;;15.10;99.90;;;;;;5041227;28;20119;-85
2022/06/06 07:47:03;;;;;;;5.97;3.47;;;15.20;99.90;;;;;;5045436;28;20495;-82
2022/06/06 07:49:44;;;;;;;6.47;3.05;;;15.30;99.90;;;;;;5030148;28;20052;-83
2022/06/06 07:52:28;;;;;;;9.13;3.42;;;15.50;99.90;;;;;;5043345;28;20040;-82
2022/06/06 07:55:24;;;;;;;5.13;3.33;;;15.60;99.90;;;;;;5045418;28;20033;-82
2022/06/06 07:57:50;;;;;;;6.78;3.20;;;15.80;99.90;;;;;;5045846;28;20041;-81
2022/06/06 08:00:19;;;;;;;4.85;3.10;;;15.90;99.90;;;;;;5045104;28;20433;-83
2022/06/06 08:03:08;;;;;;;7.00;3.45;;;16.00;99.90;;;;;;5045049;28;20029;-83
2022/06/06 08:05:59;;;;;;;5.60;3.30;;;16.10;99.90;;;;;;5043970;28;20068;-82
2022/06/06 08:08:47;;;;;;;7.20;3.53;;;16.10;99.90;;;;;;5049087;28;20037;-82
2022/06/06 08:11:24;;;;;;;5.00;3.25;;;15.90;99.90;;;;;;5032762;28;20041;-82
2022/06/06 08:14:14;;;;;;;7.10;3.35;;;15.80;99.90;;;;;;5026669;28;20122;-82
2022/06/06 08:16:54;;;;;;;7.15;3.50;;;15.80;99.90;;;;;;5051448;28;20045;-81
2022/06/06 08:19:37;;;;;;;6.65;3.25;;;15.70;99.90;;;;;;5048076;28;20045;-80
2022/06/06 08:22:04;;;;;;;7.95;3.60;;;15.70;99.90;;;;;;5045258;28;20449;-81
2022/06/06 08:24:34;;;;;;;6.57;3.88;;;15.90;99.90;;;;;;5028187;28;20040;-82
2022/06/06 08:27:05;;;;;;;7.78;3.90;;;16.10;99.90;;;;;;5045647;28;20399;-82
2022/06/06 08:29:35;;;;;;;11.70;4.25;;;16.20;99.90;;;;;;5046304;28;20051;-83
2022/06/06 08:32:01;;;;;;;8.18;4.80;;;16.40;99.90;;;;;;5048311;28;20067;-81
2022/06/06 08:34:26;;;;;;;7.72;4.95;;;16.60;99.90;;;;;;5033568;28;20036;-84
2022/06/06 08:37:59;;;;;;;7.78;4.43;;;16.60;99.90;;;;;;5033876;28;20036;-83
2022/06/06 08:40:47;;;;;;;9.02;4.40;;;16.60;99.90;;;;;;4906733;28;20466;-83
2022/06/06 08:43:40;;;;;;;7.38;4.50;;;16.70;99.90;;;;;;4972832;28;20401;-83
2022/06/06 08:46:39;;;;;;;10.82;4.85;;;16.90;99.90;;;;;;5046482;28;20033;-81
2022/06/06 08:52:24;;;;;;;8.80;4.20;;;17.40;99.90;;;;;;5046048;28;20077;-83
2022/06/06 08:55:14;;;;;;;6.38;3.90;;;17.60;99.90;;;;;;5040824;28;20065;-83
2022/06/06 08:57:52;;;;;;;6.25;3.83;;;17.70;99.90;;;;;;5048900;28;20045;-84
2022/06/06 09:00:36;;;;;;;7.35;3.85;;;17.70;99.90;;;;;;5047932;28;20103;-81
2022/06/06 09:03:48;;;;;;;5.97;2.90;;;17.50;99.90;;;;;;5042935;28;20690;-83
2022/06/06 09:06:32;;;;;;;6.05;3.25;;;17.60;99.90;;;;;;5015542;28;20049;-82
2022/06/06 09:09:17;;;;;;;8.30;4.20;;;17.70;99.90;;;;;;5042233;28;20174;-85
2022/06/06 09:12:01;;;;;;;7.88;3.05;;;17.50;99.90;;;;;;5048570;28;20041;-81
2022/06/06 09:14:36;;;;;;;;;;;17.40;99.90;;;;;;5043865;28;20033;-82
2022/06/06 09:17:21;;;;;;;5.85;2.63;;;17.20;99.90;;;;;;5046432;28;20415;-83
2022/06/06 09:20:09;;;;;;;8.85;2.75;;;17.10;99.90;;;;;;5058923;28;20048;-81
2022/06/06 09:23:04;;;;;;;5.30;2.80;;;16.90;99.90;;;;;;5045021;28;20045;-80
2022/06/06 09:25:34;;;;;;;7.65;2.58;;;16.80;99.90;;;;;;5045146;28;20045;-86
2022/06/06 09:28:18;;;;;;;6.25;2.25;;;16.90;99.90;;;;;;5046699;28;20120;-81
2022/06/06 09:30:44;;;;;;;;;;;17.20;99.90;;;;;;5045351;28;20037;-81
2022/06/06 09:33:27;;;;;;;5.13;2.42;;;17.50;99.90;;;;;;5046495;28;20337;-82
2022/06/06 09:36:23;;;;;;;3.47;2.25;;;17.80;99.90;;;;;;5045990;28;20124;-83
2022/06/06 09:38:48;;;;;;;5.93;2.28;;;17.60;99.90;;;;;;5045594;28;20041;-84
2022/06/06 09:41:48;;;;;;;6.18;2.60;;;17.40;99.90;;;;;;5030175;28;20538;-83
2022/06/06 09:44:41;;;;;;;7.05;2.60;;;17.00;99.90;;;;;;5044150;28;20487;-82
2022/06/06 09:47:16;;;;;;;5.03;2.58;;;16.90;99.90;;;;;;5041881;28;20064;-81
2022/06/06 09:50:03;;;;;;;11.43;3.00;;;17.30;99.90;;;;;;5049089;28;20048;-83
2022/06/06 09:52:51;;;;;;;7.32;3.00;;;17.60;99.90;;;;;;5047395;28;20414;-80
2022/06/06 10:01:33;;;;;;;7.38;2.13;;;18.20;99.90;;;;;;5049757;28;20045;-82
2022/06/06 10:04:36;;;;;;;8.68;1.98;;;18.30;99.90;;;;;;5048901;28;20037;-80
2022/06/06 10:07:51;;;;;;;7.13;2.30;;;18.20;99.90;;;;;;5039617;28;20139;-84
2022/06/06 10:10:53;;;;;;;4.93;1.70;;;18.30;99.90;;;;;;5029608;28;20124;-80
2022/06/06 10:13:30;;;;;;;5.20;1.90;;;18.50;99.90;;;;;;5046050;28;20032;-81
2022/06/06 10:16:16;;;;;;;7.47;2.05;;;18.70;99.90;;;;;;5048328;28;20043;-81
2022/06/06 10:19:10;;;;;;;3.83;1.75;;;18.70;99.90;;;;;;5041567;28;20045;-83
2022/06/06 10:22:13;;;;;;;4.00;1.60;;;18.80;99.90;;;;;;5050617;28;20116;-80
2022/06/06 10:25:00;;;;;;;4.95;1.80;;;18.50;99.90;;;;;;5050270;28;20048;-83
2022/06/06 10:27:31;;;;;;;6.00;1.70;;;18.20;99.90;;;;;;5035182;28;20083;-82
2022/06/06 10:30:11;;;;;;;6.60;1.67;;;18.10;99.90;;;;;;5051932;28;20095;-82
2022/06/06 10:32:42;;;;;;;6.85;1.63;;;18.20;99.90;;;;;;5049746;28;20525;-81
2022/06/06 10:35:31;;;;;;;7.65;1.70;;;18.10;99.90;;;;;;5050585;28;20430;-82
2022/06/06 10:38:30;;;;;;;4.72;1.50;;;18.20;99.90;;;;;;5042259;28;20431;-82
2022/06/06 10:41:10;;;;;;;4.75;1.65;;;18.40;99.90;;;;;;5051106;28;20044;-86
2022/06/06 10:43:47;;;;;;;4.47;1.50;;;18.40;99.90;;;;;;5059304;28;20147;-81
2022/06/06 10:46:17;;;;;;;7.07;1.40;;;18.40;99.90;;;;;;5047257;28;20088;-81
2022/06/06 10:49:14;;;;;;;6.40;1.42;;;18.40;99.90;;;;;;5045877;28;20036;-82
2022/06/06 10:52:07;;;;;;;8.10;1.70;;;18.50;99.90;;;;;;5048440;28;20076;-81
2022/06/06 10:55:23;;;;;;;5.03;1.58;;;18.50;99.90;;;;;;5046741;28;20045;-83
2022/06/06 10:58:01;;;;;;;6.93;1.42;;;18.60;99.90;;;;;;5022623;28;20051;-83
2022/06/06 11:00:35;;;;;;;6.40;1.10;;;18.60;99.90;;;;;;5032090;28;20474;-81
2022/06/06 11:03:39;;;;;;;4.97;1.00;;;18.50;99.90;;;;;;5048786;28;20049;-82
2022/06/06 11:06:29;;;;;;;5.10;1.10;;;18.70;99.90;;;;;;5012897;28;20406;-81
2022/06/06 11:09:33;;;;;;;6.85;1.38;;;18.90;99.90;;;;;;5048405;28;20041;-82
2022/06/06 11:12:16;;;;;;;3.60;1.08;;;19.30;99.90;;;;;;5046663;28;20036;-82
2022/06/06 11:14:46;;;;;;;5.13;1.05;;;19.30;99.90;;;;;;5045712;28;20116;-82
2022/06/06 11:17:57;;;;;;;4.93;1.05;;;19.10;99.90;;;;;;5048890;28;20502;-82
2022/06/06 11:21:01;;;;;;;5.32;1.08;;;19.20;99.90;;;;;;5043522;28;20107;-82
2022/06/06 11:23:56;;;;;;;5.82;1.05;;;19.20;99.90;;;;;;5045801;28;20033;-81
2022/06/06 11:26:41;;;;;;;3.58;1.40;;;19.10;99.90;;;;;;5048949;28;20502;-82
2022/06/06 11:29:33;;;;;;;10.73;1.40;;;18.80;99.90;;;;;;5033941;28;20040;-82
2022/06/06 11:32:16;;;;;;;5.28;1.50;;;18.50;99.90;;;;;;5050205;28;20044;-80
2022/06/06 11:35:08;;;;;;;5.05;1.45;;;18.20;99.90;;;;;;5049884;28;20033;-80
2022/06/06 11:38:29;;;;;;;3.22;1.40;;;17.90;99.90;;;;;;5047781;28;20033;-80
2022/06/06 11:41:23;;;;;;;6.05;1.52;;;18.10;99.90;;;;;;5021841;28;20516;-81
2022/06/06 11:44:16;;;;;;;1.70;1.25;;;18.10;99.90;;;;;;5049222;28;20049;-81
2022/06/06 11:47:02;;;;;;;5.85;1.88;;;17.80;99.90;;;;;;5050970;28;20045;-82
2022/06/06 11:50:04;;;;;;;4.72;1.80;;;18.00;99.90;;;;;;5051035;28;20045;-82
2022/06/06 11:53:09;;;;;;;5.78;1.80;;;18.50;99.90;;;;;;5051790;28;20128;-82
2022/06/06 11:55:54;;;;;;;3.85;1.60;;;18.90;99.90;;;;;;5050876;28;20068;-81
2022/06/06 11:58:34;;;;;;;;;;;18.80;99.90;;;;;;5048485;28;20104;-79
2022/06/06 12:01:36;;;;;;;3.13;1.38;;;18.60;99.90;;;;;;5043029;28;19932;-82
2022/06/06 12:04:28;;;;;;;4.32;1.50;;;18.30;99.90;;;;;;5046096;28;20060;-80
2022/06/06 12:07:18;;;;;;;3.83;1.42;;;18.10;99.90;;;;;;5043735;28;20029;-79
2022/06/06 12:10:03;;;;;;;4.32;1.50;;;18.00;99.90;;;;;;5043872;28;20612;-79
2022/06/06 12:13:02;;;;;;;3.95;1.50;;;18.10;99.90;;;;;;5046595;28;20025;-80
2022/06/06 12:15:49;;;;;;;3.25;1.50;;;18.30;99.90;;;;;;5046213;28;20510;-79
2022/06/06 12:18:23;;;;;;;6.50;1.75;;;18.40;99.90;;;;;;5047987;28;20041;-80
2022/06/06 12:20:57;;;;;;;6.72;1.80;;;18.60;99.90;;;;;;5050110;28;20037;-80
2022/06/06 12:23:55;;;;;;;;;;;18.70;99.90;;;;;;5051938;28;20045;-79
2022/06/06 12:26:48;;;;;;;4.95;1.80;;;18.90;99.90;;;;;;5018696;28;20371;-80
2022/06/06 12:29:36;;;;;;;4.90;1.75;;;19.00;99.90;;;;;;5051503;28;20041;-81
2022/06/06 12:32:28;;;;;;;6.50;1.80;;;18.60;99.90;;;;;;5051635;28;20636;-81
2022/06/06 12:35:17;;;;;;;7.22;2.13;;;18.20;99.90;;;;;;5049731;28;20037;-83
2022/06/06 12:38:10;;;;;;;4.53;1.80;;;17.70;99.90;;;;;;5050480;28;20037;-83
2022/06/06 12:40:52;;;;;;;6.50;2.20;;;17.30;99.90;;;;;;5033620;28;20049;-83
2022/06/06 12:43:36;;;;;;;6.45;2.40;;;17.00;99.90;;;;;;5050584;28;20407;-83
2022/06/06 12:46:40;;;;;;;6.22;2.17;;;16.70;99.90;;;;;;5049819;28;20501;-85
2022/06/06 12:49:27;;;;;;;3.03;1.93;;;16.50;99.90;;;;;;5014144;28;20037;-83
2022/06/06 12:52:11;;;;;;;3.08;1.98;;;16.40;99.90;;;;;;5038808;28;20173;-84
2022/06/06 12:57:59;;;;;;;5.35;1.92;;;16.30;99.90;;;;;;5050275;28;20044;-84
2022/06/06 13:03:39;;;;;;;5.25;1.80;;;16.10;99.90;;;;;;5050042;28;20049;-84
2022/06/06 13:06:26;;;;;;;4.57;2.00;;;15.90;99.90;;;;;;5033099;28;20083;-83
2022/06/06 13:09:20;;;;;;;4.35;1.63;;;15.80;99.90;;;;;;5033701;28;20040;-86
2022/06/06 13:12:11;;;;;;;5.45;3.35;;;15.90;99.90;;;;;;5033721;28;20511;-86
2022/06/06 13:14:39;;;;;;;4.03;1.90;;;15.90;99.90;;;;;;5049656;28;20037;-85
2022/06/06 13:17:29;;;;;;;3.63;2.08;;;16.00;99.90;;;;;;5033593;28;20049;-86
2022/06/06 13:20:08;;;;;;;3.78;2.08;;;16.10;99.90;;;;;;5037529;28;20072;-85
2022/06/06 13:23:09;;;;;;;5.18;2.00;;;16.20;99.90;;;;;;5053983;28;20584;-85
2022/06/06 13:25:56;;;;;;;3.97;1.90;;;16.30;99.90;;;;;;5033482;28;20056;-84
2022/06/06 13:28:29;;;;;;;5.10;2.25;;;16.30;99.90;;;;;;5043607;28;20064;-85
2022/06/06 13:30:57;;;;;;;4.55;1.90;;;16.40;99.90;;;;;;5053885;28;20132;-84
2022/06/06 13:34:08;;;;;;;4.65;2.13;;;16.40;99.90;;;;;;5037029;28;20044;-84
2022/06/06 13:36:49;;;;;;;6.25;2.28;;;16.20;99.90;;;;;;5022917;28;20041;-85
2022/06/06 13:39:25;;;;;;;10.02;3.10;;;16.00;99.90;;;;;;5053011;28;20048;-83
2022/06/06 13:42:23;;;;;;;4.65;2.78;;;15.80;99.90;;;;;;5037110;28;20045;-84
2022/06/06 13:45:07;;;;;;;4.88;2.50;;;15.70;99.90;;;;;;5009188;28;20051;-83
2022/06/06 13:48:01;;;;;;;6.00;2.80;;;15.50;99.90;;;;;;5034209;28;20380;-83
2022/06/06 13:50:53;;;;;;;5.40;2.85;;;15.40;99.90;;;;;;5045798;28;20568;-83
2022/06/06 13:53:25;;;;;;;6.07;3.13;;;15.40;99.90;;;;;;5053656;28;20558;-83
2022/06/06 13:56:18;;;;;;;5.15;3.10;;;15.30;99.90;;;;;;5052789;28;20051;-82
2022/06/06 13:58:50;;;;;;;8.07;3.45;;;15.30;99.90;;;;;;5053774;28;20045;-82
2022/06/06 14:01:40;;;;;;;8.55;3.80;;;15.40;99.90;;;;;;5053871;28;20041;-82
2022/06/06 14:04:14;;;;;;;6.47;3.70;;;15.30;99.90;;;;;;5037347;28;20127;-81
2022/06/06 14:07:16;;;;;;;8.52;3.50;;;15.30;99.90;;;;;;5054240;28;20514;-82
2022/06/06 14:09:44;;;;;;;6.50;3.75;;;15.30;99.90;;;;;;5054013;28;20083;-82
2022/06/06 14:12:13;;;;;;;5.95;3.63;;;15.30;99.90;;;;;;5054068;28;20094;-80
2022/06/06 14:14:39;;;;;;;7.28;3.80;;;15.30;99.90;;;;;;5053837;28;20133;-81
2022/06/06 14:17:08;;;;;;;8.20;4.28;;;15.30;99.90;;;;;;5054393;28;20061;-80
2022/06/06 14:19:46;;;;;;;9.73;4.28;;;15.30;99.90;;;;;;5038256;28;20064;-79
2022/06/06 14:22:26;;;;;;;7.97;3.90;;;15.20;99.90;;;;;;5034977;28;20121;-80
2022/06/06 14:24:54;;;;;;;4.65;4.00;;;15.20;99.90;;;;;;5049064;28;20123;-79
2022/06/06 14:27:20;;;;;;;5.35;3.90;;;15.10;99.90;;;;;;5054655;28;20036;-79
2022/06/06 14:29:52;;;;;;;6.03;3.83;;;15.00;99.90;;;;;;5053730;28;20438;-79
2022/06/06 14:32:28;;;;;;;7.43;4.15;;;15.00;99.90;;;;;;5053747;28;20045;-79